createdAt,value
2018-11-23T00:00:52.454Z,84.35
2018-11-23T00:01:53.035Z,84.14
2018-11-23T00:02:52.493Z,84.77
2018-11-23T00:03:52.422Z,84.04
2018-11-23T00:04:52.412Z,84.25
2018-11-23T00:05:52.410Z,84.56
2018-11-23T00:06:52.391Z,84.87
2018-11-23T00:07:52.448Z,83.94
2018-11-23T00:08:52.372Z,84.25
2018-11-23T00:09:52.363Z,84.14
2018-11-23T00:10:52.350Z,84.25
2018-11-23T00:11:52.339Z,84.14
2018-11-23T00:12:52.394Z,84.98
2018-11-23T00:13:52.322Z,84.87
2018-11-23T00:14:52.312Z,85.08
2018-11-23T00:15:52.298Z,84.66
2018-11-23T00:16:52.287Z,84.77
2018-11-23T00:17:52.340Z,84.87
2018-11-23T00:18:52.268Z,85.91
2018-11-23T00:19:52.260Z,85.71
2018-11-23T00:20:52.250Z,86.02
2018-11-23T00:21:52.234Z,84.77
2018-11-23T00:22:52.599Z,85.50
2018-11-23T00:23:52.219Z,85.08
2018-11-23T00:24:52.213Z,85.08
2018-11-23T00:25:52.199Z,85.96
2018-11-23T00:26:52.187Z,84.66
2018-11-23T00:27:52.246Z,85.12
2018-11-23T00:28:52.167Z,85.19
2018-11-23T00:29:52.155Z,85.12
2018-11-23T00:30:52.146Z,84.66
2018-11-23T00:31:52.133Z,84.87
2018-11-23T00:32:52.188Z,84.77
2018-11-23T00:33:52.114Z,84.66
2018-11-23T00:34:52.104Z,84.70
2018-11-23T00:35:52.095Z,84.87
2018-11-23T00:36:52.085Z,84.66
2018-11-23T00:37:52.137Z,84.28
2018-11-23T00:38:52.074Z,84.81
2018-11-23T00:39:52.052Z,84.81
2018-11-23T00:40:52.042Z,84.87
2018-11-23T00:41:52.031Z,84.87
2018-11-23T00:42:52.080Z,84.98
2018-11-23T00:43:52.527Z,84.91
2018-11-23T00:44:52.002Z,84.81
2018-11-23T00:45:51.991Z,84.50
2018-11-23T00:46:51.981Z,85.12
2018-11-23T00:47:52.038Z,84.81
2018-11-23T00:48:51.959Z,84.87
2018-11-23T00:49:51.947Z,84.45
2018-11-23T00:50:51.938Z,84.77
2018-11-23T00:51:51.928Z,84.66
2018-11-23T00:52:51.989Z,84.91
2018-11-23T00:53:51.908Z,84.87
2018-11-23T00:54:51.898Z,84.87
2018-11-23T00:55:51.885Z,84.66
2018-11-23T00:56:51.875Z,84.77
2018-11-23T00:57:51.869Z,84.56
2018-11-23T00:58:51.916Z,84.77
2018-11-23T00:59:51.845Z,84.56
2018-11-23T01:00:51.833Z,84.66
2018-11-23T01:01:51.826Z,84.66
2018-11-23T01:02:51.820Z,84.66
2018-11-23T01:03:51.867Z,84.66
2018-11-23T01:04:52.520Z,84.70
2018-11-23T01:05:51.783Z,84.87
2018-11-23T01:06:52.534Z,84.91
2018-11-23T01:07:51.766Z,84.91
2018-11-23T01:08:51.819Z,84.77
2018-11-23T01:09:51.750Z,84.77
2018-11-23T01:10:51.734Z,84.70
2018-11-23T01:11:51.723Z,85.08
2018-11-23T01:12:51.714Z,85.91
2018-11-23T01:13:51.765Z,85.43
2018-11-23T01:14:51.696Z,84.77
2018-11-23T01:15:51.680Z,84.98
2018-11-23T01:16:51.673Z,84.56
2018-11-23T01:17:51.659Z,84.87
2018-11-23T01:18:51.722Z,84.70
2018-11-23T01:19:51.642Z,84.45
2018-11-23T01:20:51.635Z,84.81
2018-11-23T01:21:51.620Z,84.77
2018-11-23T01:22:51.611Z,84.87
2018-11-23T01:23:51.669Z,85.50
2018-11-23T01:24:51.594Z,84.70
2018-11-23T01:25:52.520Z,84.91
2018-11-23T01:26:51.572Z,85.85
2018-11-23T01:27:51.558Z,85.64
2018-11-23T01:28:51.609Z,85.74
2018-11-23T01:29:51.541Z,85.53
2018-11-23T01:30:51.528Z,85.22
2018-11-23T01:31:51.519Z,85.64
2018-11-23T01:32:51.510Z,85.53
2018-11-23T01:33:51.556Z,85.33
2018-11-23T01:34:51.489Z,85.74
2018-11-23T01:35:51.480Z,86.16
2018-11-23T01:36:51.468Z,85.64
2018-11-23T01:37:51.457Z,86.27
2018-11-23T01:38:51.508Z,85.53
2018-11-23T01:39:51.435Z,85.96
2018-11-23T01:40:51.426Z,85.96
2018-11-23T01:41:51.417Z,86.06
2018-11-23T01:42:51.411Z,86.16
2018-11-23T01:43:51.459Z,85.96
2018-11-23T01:44:51.384Z,86.16
2018-11-23T01:45:51.375Z,85.53
2018-11-23T01:46:52.018Z,85.58
2018-11-23T01:47:51.353Z,86.16
2018-11-23T01:48:51.403Z,86.41
2018-11-23T01:49:51.333Z,86.37
2018-11-23T01:50:51.324Z,86.51
2018-11-23T01:51:51.310Z,85.78
2018-11-23T01:52:51.300Z,86.37
2018-11-23T01:53:51.360Z,85.99
2018-11-23T01:54:51.282Z,85.96
2018-11-23T01:55:51.273Z,86.41
2018-11-23T01:56:51.258Z,86.37
2018-11-23T01:57:51.249Z,86.06
2018-11-23T01:58:51.238Z,85.74
2018-11-23T01:59:51.290Z,85.99
2018-11-23T02:00:51.219Z,85.89
2018-11-23T02:01:51.212Z,86.30
2018-11-23T02:02:51.199Z,86.51
2018-11-23T02:03:51.190Z,85.89
2018-11-23T02:04:51.241Z,86.41
2018-11-23T02:05:51.171Z,86.10
2018-11-23T02:06:51.156Z,86.30
2018-11-23T02:07:53.013Z,85.99
2018-11-23T02:08:51.136Z,86.20
2018-11-23T02:09:51.196Z,86.20
2018-11-23T02:10:51.118Z,86.51
2018-11-23T02:11:51.105Z,86.10
2018-11-23T02:12:51.094Z,86.20
2018-11-23T02:13:51.087Z,86.61
2018-11-23T02:14:51.137Z,85.89
2018-11-23T02:15:51.064Z,86.51
2018-11-23T02:16:51.057Z,86.30
2018-11-23T02:17:51.042Z,85.89
2018-11-23T02:18:51.034Z,86.41
2018-11-23T02:19:51.095Z,86.30
2018-11-23T02:20:51.018Z,86.83
2018-11-23T02:21:51.004Z,86.83
2018-11-23T02:22:50.994Z,86.61
2018-11-23T02:23:50.982Z,87.14
2018-11-23T02:24:51.032Z,86.61
2018-11-23T02:25:50.959Z,85.78
2018-11-23T02:26:50.954Z,85.89
2018-11-23T02:27:50.953Z,86.41
2018-11-23T02:28:51.511Z,86.87
2018-11-23T02:29:50.987Z,87.55
2018-11-23T02:30:50.909Z,87.70
2018-11-23T02:31:50.899Z,87.45
2018-11-23T02:32:50.892Z,87.45
2018-11-23T02:33:50.878Z,87.70
2018-11-23T02:34:50.930Z,87.55
2018-11-23T02:35:50.857Z,87.55
2018-11-23T02:36:50.848Z,87.60
2018-11-23T02:37:50.839Z,87.45
2018-11-23T02:38:50.830Z,87.24
2018-11-23T02:39:50.879Z,87.55
2018-11-23T02:40:50.807Z,87.24
2018-11-23T02:41:50.794Z,87.49
2018-11-23T02:42:50.788Z,87.45
2018-11-23T02:43:50.782Z,87.14
2018-11-23T02:44:50.835Z,87.18
2018-11-23T02:45:50.755Z,87.49
2018-11-23T02:46:50.744Z,87.49
2018-11-23T02:47:50.734Z,87.49
2018-11-23T02:48:50.728Z,87.66
2018-11-23T02:49:51.074Z,87.66
2018-11-23T02:50:50.704Z,87.60
2018-11-23T02:51:50.692Z,87.45
2018-11-23T02:52:50.703Z,87.35
2018-11-23T02:53:50.674Z,87.55
2018-11-23T02:54:50.726Z,87.66
2018-11-23T02:55:50.654Z,87.55
2018-11-23T02:56:50.643Z,87.04
2018-11-23T02:57:50.632Z,86.83
2018-11-23T02:58:50.621Z,86.72
2018-11-23T02:59:50.678Z,86.10
2018-11-23T03:00:50.608Z,85.89
2018-11-23T03:01:50.591Z,85.96
2018-11-23T03:02:50.585Z,86.10
2018-11-23T03:03:50.570Z,86.16
2018-11-23T03:04:50.622Z,86.10
2018-11-23T03:05:50.552Z,85.99
2018-11-23T03:06:50.542Z,86.20
2018-11-23T03:07:50.532Z,86.20
2018-11-23T03:08:50.522Z,86.06
2018-11-23T03:09:50.584Z,86.10
2018-11-23T03:10:50.999Z,85.99
2018-11-23T03:11:50.489Z,85.96
2018-11-23T03:12:50.479Z,86.06
2018-11-23T03:13:50.473Z,86.51
2018-11-23T03:14:50.457Z,85.89
2018-11-23T03:15:50.519Z,86.41
2018-11-23T03:16:50.438Z,86.61
2018-11-23T03:17:50.434Z,86.58
2018-11-23T03:18:50.417Z,86.37
2018-11-23T03:19:50.405Z,86.10
2018-11-23T03:20:50.457Z,86.10
2018-11-23T03:21:50.387Z,85.89
2018-11-23T03:22:50.382Z,86.20
2018-11-23T03:23:50.367Z,86.41
2018-11-23T03:24:50.357Z,85.89
2018-11-23T03:25:50.406Z,85.78
2018-11-23T03:26:50.336Z,86.51
2018-11-23T03:27:50.328Z,86.41
2018-11-23T03:28:50.318Z,86.41
2018-11-23T03:29:50.312Z,86.20
2018-11-23T03:30:50.356Z,85.99
2018-11-23T03:31:50.998Z,86.37
2018-11-23T03:32:50.273Z,86.37
2018-11-23T03:33:50.267Z,86.30
2018-11-23T03:34:50.253Z,86.37
2018-11-23T03:35:50.305Z,86.27
2018-11-23T03:36:50.236Z,86.20
2018-11-23T03:37:50.221Z,85.64
2018-11-23T03:38:50.215Z,85.89
2018-11-23T03:39:50.202Z,85.78
2018-11-23T03:40:50.253Z,86.10
2018-11-23T03:41:50.181Z,86.61
2018-11-23T03:42:50.169Z,86.30
2018-11-23T03:43:50.165Z,86.10
2018-11-23T03:44:50.150Z,86.61
2018-11-23T03:45:50.212Z,87.55
2018-11-23T03:46:50.130Z,87.24
2018-11-23T03:47:50.118Z,87.45
2018-11-23T03:48:50.109Z,87.45
2018-11-23T03:49:50.100Z,87.35
2018-11-23T03:50:50.160Z,87.66
2018-11-23T03:51:50.081Z,87.55
2018-11-23T03:52:50.995Z,87.45
2018-11-23T03:53:50.058Z,87.55
2018-11-23T03:54:50.050Z,86.83
2018-11-23T03:55:50.104Z,86.10
2018-11-23T03:56:50.028Z,85.93
2018-11-23T03:57:50.024Z,85.99
2018-11-23T03:58:50.010Z,86.51
2018-11-23T03:59:50.001Z,87.24
2018-11-23T04:00:50.051Z,87.45
2018-11-23T04:01:49.979Z,87.45
2018-11-23T04:02:49.968Z,87.35
2018-11-23T04:03:49.956Z,87.24
2018-11-23T04:04:49.945Z,87.45
2018-11-23T04:05:49.996Z,87.39
2018-11-23T04:06:49.923Z,87.49
2018-11-23T04:07:49.914Z,87.60
2018-11-23T04:08:49.909Z,87.55
2018-11-23T04:09:49.896Z,87.45
2018-11-23T04:10:49.945Z,87.60
2018-11-23T04:11:49.875Z,87.49
2018-11-23T04:12:49.863Z,87.60
2018-11-23T04:13:50.491Z,87.18
2018-11-23T04:14:49.842Z,87.39
2018-11-23T04:15:49.905Z,87.60
2018-11-23T04:16:49.830Z,87.28
2018-11-23T04:17:49.815Z,87.28
2018-11-23T04:18:49.809Z,87.70
2018-11-23T04:19:49.792Z,87.91
2018-11-23T04:20:49.781Z,87.74
2018-11-23T04:21:49.831Z,87.70
2018-11-23T04:22:49.761Z,87.95
2018-11-23T04:23:49.750Z,87.39
2018-11-23T04:24:49.744Z,87.43
2018-11-23T04:25:49.729Z,87.63
2018-11-23T04:26:49.780Z,87.63
2018-11-23T04:27:49.715Z,87.53
2018-11-23T04:28:50.483Z,87.91
2018-11-23T04:29:49.689Z,87.81
2018-11-23T04:30:49.678Z,87.84
2018-11-23T04:31:49.729Z,87.91
2018-11-23T04:32:49.666Z,88.26
2018-11-23T04:33:49.648Z,88.12
2018-11-23T04:34:50.481Z,87.81
2018-11-23T04:35:49.632Z,87.91
2018-11-23T04:36:49.681Z,87.60
2018-11-23T04:37:49.606Z,87.49
2018-11-23T04:38:49.597Z,87.39
2018-11-23T04:39:49.598Z,87.60
2018-11-23T04:40:49.580Z,87.39
2018-11-23T04:41:49.627Z,87.60
2018-11-23T04:42:49.557Z,87.55
2018-11-23T04:43:49.543Z,87.55
2018-11-23T04:44:49.533Z,87.39
2018-11-23T04:45:49.535Z,87.39
2018-11-23T04:46:49.574Z,87.45
2018-11-23T04:47:49.508Z,87.55
2018-11-23T04:48:49.492Z,87.45
2018-11-23T04:49:49.485Z,87.35
2018-11-23T04:50:49.473Z,87.45
2018-11-23T04:51:49.523Z,87.66
2018-11-23T04:52:49.455Z,87.76
2018-11-23T04:53:49.441Z,87.45
2018-11-23T04:54:49.432Z,87.55
2018-11-23T04:55:49.979Z,87.66
2018-11-23T04:56:49.475Z,87.66
2018-11-23T04:57:53.632Z,87.45
2018-11-23T04:58:49.390Z,87.45
2018-11-23T04:59:49.378Z,87.45
2018-11-23T05:00:49.372Z,87.45
2018-11-23T05:01:49.421Z,87.66
2018-11-23T05:02:49.354Z,87.35
2018-11-23T05:03:49.344Z,87.35
2018-11-23T05:04:49.328Z,87.60
2018-11-23T05:05:49.320Z,87.45
2018-11-23T05:06:49.369Z,87.55
2018-11-23T05:07:49.295Z,87.35
2018-11-23T05:08:49.287Z,87.35
2018-11-23T05:09:49.279Z,87.45
2018-11-23T05:10:49.272Z,87.35
2018-11-23T05:11:50.311Z,87.45
2018-11-23T05:12:49.243Z,87.55
2018-11-23T05:13:49.235Z,87.55
2018-11-23T05:14:49.228Z,87.76
2018-11-23T05:15:49.216Z,87.60
2018-11-23T05:16:49.543Z,87.14
2018-11-23T05:17:49.195Z,87.45
2018-11-23T05:18:49.181Z,87.45
2018-11-23T05:19:49.174Z,87.35
2018-11-23T05:20:49.165Z,87.35
2018-11-23T05:21:49.214Z,87.55
2018-11-23T05:22:49.146Z,87.55
2018-11-23T05:23:49.134Z,87.45
2018-11-23T05:24:49.128Z,87.49
2018-11-23T05:25:49.114Z,87.35
2018-11-23T05:26:49.160Z,87.49
2018-11-23T05:27:49.157Z,87.18
2018-11-23T05:28:49.084Z,87.49
2018-11-23T05:29:49.097Z,87.49
2018-11-23T05:30:49.060Z,87.70
2018-11-23T05:31:49.049Z,87.60
2018-11-23T05:32:49.103Z,87.70
2018-11-23T05:33:49.031Z,87.60
2018-11-23T05:34:49.018Z,87.60
2018-11-23T05:35:49.010Z,87.81
2018-11-23T05:36:48.998Z,87.91
2018-11-23T05:37:49.557Z,87.84
2018-11-23T05:38:48.977Z,87.81
2018-11-23T05:39:48.973Z,87.95
2018-11-23T05:40:48.979Z,87.84
2018-11-23T05:41:48.967Z,87.91
2018-11-23T05:42:48.998Z,87.81
2018-11-23T05:43:48.925Z,87.60
2018-11-23T05:44:48.938Z,88.06
2018-11-23T05:45:48.904Z,88.16
2018-11-23T05:46:48.893Z,88.01
2018-11-23T05:47:48.960Z,88.16
2018-11-23T05:48:48.883Z,88.64
2018-11-23T05:49:48.865Z,88.22
2018-11-23T05:50:48.853Z,88.22
2018-11-23T05:51:48.842Z,88.43
2018-11-23T05:52:48.925Z,88.01
2018-11-23T05:53:48.826Z,87.84
2018-11-23T05:54:48.815Z,88.43
2018-11-23T05:55:48.819Z,88.22
2018-11-23T05:56:48.793Z,88.22
2018-11-23T05:57:49.039Z,88.43
2018-11-23T05:58:49.485Z,88.22
2018-11-23T05:59:48.766Z,87.91
2018-11-23T06:00:48.753Z,88.22
2018-11-23T06:01:48.739Z,87.70
2018-11-23T06:02:48.790Z,88.32
2018-11-23T06:03:48.718Z,88.22
2018-11-23T06:04:48.711Z,88.32
2018-11-23T06:05:48.717Z,88.22
2018-11-23T06:06:48.689Z,88.32
2018-11-23T06:07:48.737Z,88.12
2018-11-23T06:08:48.688Z,88.22
2018-11-23T06:09:48.659Z,88.32
2018-11-23T06:10:48.666Z,88.12
2018-11-23T06:11:48.672Z,88.32
2018-11-23T06:12:48.698Z,88.43
2018-11-23T06:13:48.617Z,88.12
2018-11-23T06:14:48.604Z,88.12
2018-11-23T06:15:48.596Z,88.32
2018-11-23T06:16:48.590Z,88.22
2018-11-23T06:17:48.641Z,88.12
2018-11-23T06:18:48.569Z,88.22
2018-11-23T06:19:49.475Z,88.32
2018-11-23T06:20:48.545Z,88.22
2018-11-23T06:21:48.533Z,88.75
2018-11-23T06:22:48.595Z,88.75
2018-11-23T06:23:48.514Z,88.43
2018-11-23T06:24:48.506Z,88.43
2018-11-23T06:26:44.541Z,88.22
2018-11-23T06:27:44.535Z,88.43
2018-11-23T06:28:44.462Z,88.75
2018-11-23T06:29:45.116Z,88.53
2018-11-23T06:30:44.458Z,88.64
2018-11-23T06:31:44.435Z,88.26
2018-11-23T06:32:44.482Z,88.75
2018-11-23T06:33:44.408Z,88.75
2018-11-23T06:34:44.397Z,88.85
2018-11-23T06:35:44.390Z,88.64
2018-11-23T06:36:44.382Z,89.16
2018-11-23T06:37:44.449Z,88.89
2018-11-23T06:38:44.357Z,89.78
2018-11-23T06:39:44.349Z,89.51
2018-11-23T06:40:44.336Z,89.83
2018-11-23T06:41:44.331Z,89.47
2018-11-23T06:42:44.319Z,90.00
2018-11-23T06:43:44.402Z,89.58
2018-11-23T06:44:44.294Z,89.83
2018-11-23T06:45:44.288Z,89.93
2018-11-23T06:46:45.114Z,89.83
2018-11-23T06:47:44.270Z,89.62
2018-11-23T06:48:44.322Z,89.83
2018-11-23T06:49:44.244Z,89.51
2018-11-23T06:50:44.235Z,89.31
2018-11-23T06:51:44.225Z,89.62
2018-11-23T06:52:44.215Z,89.41
2018-11-23T06:53:44.273Z,89.83
2018-11-23T06:54:44.196Z,89.31
2018-11-23T06:55:44.184Z,89.62
2018-11-23T06:56:44.172Z,90.35
2018-11-23T06:57:44.163Z,90.41
2018-11-23T06:58:44.214Z,89.68
2018-11-23T06:59:44.150Z,89.47
2018-11-23T07:00:44.133Z,89.68
2018-11-23T07:01:44.121Z,89.47
2018-11-23T07:02:44.114Z,89.47
2018-11-23T07:03:44.169Z,89.58
2018-11-23T07:04:44.093Z,89.26
2018-11-23T07:05:44.084Z,89.58
2018-11-23T07:06:44.073Z,89.37
2018-11-23T07:07:44.612Z,89.26
2018-11-23T07:08:44.109Z,89.37
2018-11-23T07:09:44.040Z,89.78
2018-11-23T07:10:44.033Z,88.91
2018-11-23T07:11:44.019Z,88.91
2018-11-23T07:12:44.008Z,88.81
2018-11-23T07:13:44.059Z,88.43
2018-11-23T07:14:43.989Z,88.70
2018-11-23T07:15:43.978Z,89.01
2018-11-23T07:16:43.969Z,88.70
2018-11-23T07:17:43.956Z,88.29
2018-11-23T07:18:44.008Z,88.18
2018-11-23T07:19:43.937Z,88.08
2018-11-23T07:20:43.926Z,87.87
2018-11-23T07:21:43.914Z,87.76
2018-11-23T07:22:43.907Z,87.55
2018-11-23T07:23:43.957Z,87.45
2018-11-23T07:24:43.887Z,87.45
2018-11-23T07:25:43.877Z,87.45
2018-11-23T07:26:43.863Z,87.45
2018-11-23T07:27:43.854Z,87.66
2018-11-23T07:28:44.176Z,87.76
2018-11-23T07:29:43.841Z,87.76
2018-11-23T07:30:43.824Z,87.91
2018-11-23T07:31:43.813Z,87.76
2018-11-23T07:32:43.803Z,87.76
2018-11-23T07:33:43.863Z,87.76
2018-11-23T07:34:43.785Z,87.87
2018-11-23T07:35:43.772Z,87.87
2018-11-23T07:36:43.768Z,87.76
2018-11-23T07:37:43.749Z,87.76
2018-11-23T07:38:43.811Z,87.81
2018-11-23T07:39:43.736Z,87.45
2018-11-23T07:40:43.721Z,87.87
2018-11-23T07:41:43.707Z,87.81
2018-11-23T07:42:43.699Z,88.08
2018-11-23T07:43:43.689Z,88.01
2018-11-23T07:44:43.738Z,88.08
2018-11-23T07:45:43.671Z,88.08
2018-11-23T07:46:43.656Z,87.76
2018-11-23T07:47:43.647Z,87.87
2018-11-23T07:48:43.638Z,88.12
2018-11-23T07:49:44.676Z,88.18
2018-11-23T07:50:43.617Z,87.87
2018-11-23T07:51:43.606Z,87.45
2018-11-23T07:52:43.594Z,87.45
2018-11-23T07:53:43.588Z,87.45
2018-11-23T07:54:43.642Z,87.55
2018-11-23T07:55:43.564Z,87.55
2018-11-23T07:56:43.554Z,87.66
2018-11-23T07:57:43.543Z,87.55
2018-11-23T07:58:43.533Z,87.24
2018-11-23T07:59:43.587Z,87.45
2018-11-23T08:00:43.510Z,87.73
2018-11-23T08:01:43.504Z,87.30
2018-11-23T08:02:43.494Z,87.35
2018-11-23T08:03:43.486Z,87.55
2018-11-23T08:04:43.532Z,87.45
2018-11-23T08:05:43.471Z,87.52
2018-11-23T08:06:43.450Z,87.41
2018-11-23T08:07:43.462Z,87.52
2018-11-23T08:08:43.432Z,87.30
2018-11-23T08:09:43.488Z,87.41
2018-11-23T08:10:45.099Z,87.52
2018-11-23T08:11:43.404Z,87.30
2018-11-23T08:12:43.390Z,87.10
2018-11-23T08:13:43.381Z,87.41
2018-11-23T08:14:43.430Z,86.79
2018-11-23T08:15:43.360Z,86.68
2018-11-23T08:16:43.348Z,86.27
2018-11-23T08:17:43.381Z,86.33
2018-11-23T08:18:43.328Z,86.43
2018-11-23T08:19:47.335Z,85.85
2018-11-23T08:20:43.307Z,85.81
2018-11-23T08:21:43.297Z,85.96
2018-11-23T08:22:43.288Z,85.91
2018-11-23T08:23:43.282Z,86.12
2018-11-23T08:24:43.330Z,85.35
2018-11-23T08:25:43.255Z,85.00
2018-11-23T08:26:43.246Z,84.09
2018-11-23T08:27:43.242Z,83.12
2018-11-23T08:28:43.226Z,81.52
2018-11-23T08:29:43.274Z,80.14
2018-11-23T08:30:43.207Z,79.61
2018-11-23T08:31:44.096Z,80.18
2018-11-23T08:32:43.189Z,80.63
2018-11-23T08:33:43.176Z,80.98
2018-11-23T08:34:43.227Z,82.01
2018-11-23T08:35:43.180Z,82.43
2018-11-23T08:36:43.141Z,82.22
2018-11-23T08:37:43.135Z,82.29
2018-11-23T08:38:43.123Z,81.07
2018-11-23T08:39:43.170Z,80.21
2018-11-23T08:40:43.102Z,78.58
2018-11-23T08:41:43.093Z,77.19
2018-11-23T08:42:43.087Z,76.23
2018-11-23T08:43:43.074Z,75.40
2018-11-23T08:44:43.121Z,75.40
2018-11-23T08:45:43.046Z,75.50
2018-11-23T08:46:43.037Z,74.53
2018-11-23T08:47:43.028Z,74.08
2018-11-23T08:48:43.019Z,73.36
2018-11-23T08:49:43.084Z,73.22
2018-11-23T08:50:42.995Z,73.08
2018-11-23T08:51:42.983Z,72.47
2018-11-23T08:52:43.590Z,72.05
2018-11-23T08:53:42.965Z,71.95
2018-11-23T08:54:42.956Z,72.05
2018-11-23T08:55:43.011Z,72.39
2018-11-23T08:56:42.932Z,72.78
2018-11-23T08:57:42.924Z,72.26
2018-11-23T08:58:42.918Z,71.84
2018-11-23T08:59:42.902Z,71.43
2018-11-23T09:00:42.959Z,72.05
2018-11-23T09:01:42.879Z,71.50
2018-11-23T09:02:42.872Z,71.16
2018-11-23T09:03:42.860Z,70.54
2018-11-23T09:04:42.853Z,69.99
2018-11-23T09:05:42.906Z,68.93
2018-11-23T09:06:42.825Z,69.82
2018-11-23T09:07:42.819Z,70.57
2018-11-23T09:08:42.807Z,72.19
2018-11-23T09:09:42.795Z,72.36
2018-11-23T09:10:42.852Z,71.37
2018-11-23T09:11:42.777Z,69.41
2018-11-23T09:12:42.762Z,66.84
2018-11-23T09:13:43.586Z,65.47
2018-11-23T09:14:42.747Z,63.87
2018-11-23T09:15:42.793Z,63.02
2018-11-23T09:16:42.725Z,61.90
2018-11-23T09:17:42.714Z,60.13
2018-11-23T09:18:42.701Z,59.08
2018-11-23T09:19:42.691Z,59.15
2018-11-23T09:20:42.744Z,59.36
2018-11-23T09:21:42.671Z,59.25
2018-11-23T09:22:42.663Z,58.84
2018-11-23T09:23:42.649Z,57.89
2018-11-23T09:24:42.637Z,58.38
2018-11-23T09:25:42.693Z,57.76
2018-11-23T09:26:42.620Z,57.23
2018-11-23T09:27:42.609Z,56.38
2018-11-23T09:28:42.598Z,56.15
2018-11-23T09:29:42.586Z,55.71
2018-11-23T09:30:42.638Z,54.87
2018-11-23T09:31:42.563Z,54.26
2018-11-23T09:32:42.554Z,54.67
2018-11-23T09:33:42.542Z,55.18
2018-11-23T09:34:43.083Z,54.72
2018-11-23T09:35:42.590Z,55.87
2018-11-23T09:36:42.516Z,56.54
2018-11-23T09:37:42.502Z,58.51
2018-11-23T09:38:42.493Z,58.84
2018-11-23T09:39:42.479Z,58.61
2018-11-23T09:40:42.528Z,58.58
2018-11-23T09:41:42.463Z,58.02
2018-11-23T09:42:42.448Z,56.66
2018-11-23T09:43:42.440Z,56.12
2018-11-23T09:44:42.428Z,54.85
2018-11-23T09:45:42.485Z,53.62
2018-11-23T09:46:42.404Z,54.97
2018-11-23T09:47:42.406Z,55.18
2018-11-23T09:48:42.386Z,54.87
2018-11-23T09:49:42.377Z,54.13
2018-11-23T09:50:42.427Z,53.72
2018-11-23T09:51:42.353Z,54.28
2018-11-23T09:52:42.349Z,53.75
2018-11-23T09:53:42.341Z,53.01
2018-11-23T09:54:42.318Z,51.56
2018-11-23T09:55:42.661Z,51.43
2018-11-23T09:56:42.299Z,51.43
2018-11-23T09:57:42.289Z,50.62
2018-11-23T09:58:43.759Z,50.57
2018-11-23T09:59:42.267Z,50.34
2018-11-23T10:00:42.259Z,49.10
2018-11-23T10:01:42.305Z,48.67
2018-11-23T10:02:42.255Z,47.61
2018-11-23T10:03:42.223Z,48.11
2018-11-23T10:04:42.214Z,47.81
2018-11-23T10:05:42.202Z,47.02
2018-11-23T10:06:42.261Z,47.55
2018-11-23T10:07:42.189Z,48.57
2018-11-23T10:08:42.177Z,47.86
2018-11-23T10:09:42.159Z,47.88
2018-11-23T10:10:42.153Z,48.36
2018-11-23T10:11:42.206Z,47.74
2018-11-23T10:12:42.130Z,46.06
2018-11-23T10:13:42.118Z,45.92
2018-11-23T10:14:42.137Z,46.71
2018-11-23T10:15:42.100Z,45.37
2018-11-23T10:16:42.655Z,44.82
2018-11-23T10:17:42.083Z,44.37
2018-11-23T10:18:42.064Z,43.57
2018-11-23T10:19:42.058Z,43.26
2018-11-23T10:20:42.043Z,43.04
2018-11-23T10:21:42.107Z,42.52
2018-11-23T10:22:42.033Z,42.90
2018-11-23T10:23:42.040Z,42.21
2018-11-23T10:24:42.005Z,41.99
2018-11-23T10:25:41.990Z,42.49
2018-11-23T10:26:42.070Z,40.37
2018-11-23T10:27:41.972Z,41.69
2018-11-23T10:28:41.962Z,40.48
2018-11-23T10:29:41.948Z,42.32
2018-11-23T10:30:41.945Z,41.00
2018-11-23T10:31:42.155Z,41.59
2018-11-23T10:32:41.913Z,42.07
2018-11-23T10:33:41.906Z,41.14
2018-11-23T10:34:41.908Z,41.05
2018-11-23T10:35:41.899Z,39.92
2018-11-23T10:36:41.940Z,40.82
2018-11-23T10:37:42.583Z,39.81
2018-11-23T10:38:41.853Z,39.59
2018-11-23T10:39:41.857Z,40.42
2018-11-23T10:40:41.831Z,39.39
2018-11-23T10:41:41.887Z,39.58
2018-11-23T10:42:41.809Z,38.87
2018-11-23T10:43:41.798Z,39.79
2018-11-23T10:44:41.790Z,40.70
2018-11-23T10:45:41.778Z,39.29
2018-11-23T10:46:41.847Z,39.79
2018-11-23T10:47:41.758Z,39.39
2018-11-23T10:48:41.743Z,39.28
2018-11-23T10:49:41.739Z,39.25
2018-11-23T10:50:41.727Z,39.25
2018-11-23T10:51:41.784Z,38.95
2018-11-23T10:52:41.704Z,38.75
2018-11-23T10:53:41.692Z,39.15
2018-11-23T10:54:41.680Z,39.56
2018-11-23T10:55:41.676Z,39.17
2018-11-23T10:56:41.728Z,39.28
2018-11-23T10:57:41.655Z,40.38
2018-11-23T10:58:42.584Z,39.36
2018-11-23T10:59:41.632Z,37.85
2018-11-23T11:00:41.619Z,39.25
2018-11-23T11:01:41.674Z,39.25
2018-11-23T11:02:41.596Z,38.95
2018-11-23T11:03:41.591Z,38.95
2018-11-23T11:04:41.573Z,38.64
2018-11-23T11:05:41.566Z,38.73
2018-11-23T11:06:41.636Z,37.81
2018-11-23T11:07:41.545Z,37.69
2018-11-23T11:08:41.533Z,36.99
2018-11-23T11:09:41.525Z,36.99
2018-11-23T11:10:41.607Z,37.08
2018-11-23T11:11:41.501Z,37.79
2018-11-23T11:12:41.558Z,37.08
2018-11-23T11:13:41.482Z,36.97
2018-11-23T11:14:41.471Z,36.87
2018-11-23T11:15:41.472Z,36.47
2018-11-23T11:16:41.466Z,36.47
2018-11-23T11:17:41.530Z,36.87
2018-11-23T11:18:41.431Z,37.39
2018-11-23T11:19:42.091Z,37.19
2018-11-23T11:20:41.430Z,37.08
2018-11-23T11:21:41.399Z,37.19
2018-11-23T11:22:41.448Z,37.08
2018-11-23T11:23:41.373Z,37.17
2018-11-23T11:24:41.364Z,36.67
2018-11-23T11:25:41.356Z,37.47
2018-11-23T11:26:41.343Z,36.69
2018-11-23T11:27:41.400Z,36.99
2018-11-23T11:28:41.322Z,37.19
2018-11-23T11:29:41.310Z,36.58
2018-11-23T11:30:41.301Z,37.08
2018-11-23T11:31:41.289Z,37.89
2018-11-23T11:32:41.341Z,36.27
2018-11-23T11:33:41.273Z,36.58
2018-11-23T11:34:41.263Z,36.97
2018-11-23T11:35:41.268Z,37.05
2018-11-23T11:36:41.239Z,36.55
2018-11-23T11:37:41.288Z,35.64
2018-11-23T11:38:41.215Z,36.25
2018-11-23T11:39:41.214Z,36.54
2018-11-23T11:40:42.088Z,36.23
2018-11-23T11:41:41.187Z,35.35
2018-11-23T11:42:41.251Z,36.58
2018-11-23T11:43:41.171Z,37.32
2018-11-23T11:44:41.156Z,38.01
2018-11-23T11:45:41.145Z,37.01
2018-11-23T11:46:41.139Z,36.80
2018-11-23T11:47:41.189Z,37.10
2018-11-23T11:48:41.112Z,37.61
2018-11-23T11:49:41.104Z,37.01
2018-11-23T11:50:41.097Z,38.21
2018-11-23T11:51:41.084Z,37.08
2018-11-23T11:52:41.137Z,36.89
2018-11-23T11:53:41.061Z,37.79
2018-11-23T11:54:41.052Z,36.67
2018-11-23T11:55:41.049Z,36.57
2018-11-23T11:56:41.031Z,36.97
2018-11-23T11:57:41.081Z,36.35
2018-11-23T11:58:41.010Z,36.83
2018-11-23T11:59:40.999Z,35.64
2018-11-23T12:00:40.990Z,36.55
2018-11-23T12:01:41.589Z,36.95
2018-11-23T12:02:41.035Z,36.79
2018-11-23T12:03:40.960Z,36.87
2018-11-23T12:04:40.956Z,37.17
2018-11-23T12:05:40.936Z,36.99
2018-11-23T12:06:40.929Z,37.71
2018-11-23T12:07:40.979Z,37.08
2018-11-23T12:08:40.920Z,38.20
2018-11-23T12:09:40.897Z,36.89
2018-11-23T12:10:40.888Z,37.69
2018-11-23T12:11:40.879Z,38.31
2018-11-23T12:12:40.928Z,38.85
2018-11-23T12:13:40.853Z,39.39
2018-11-23T12:14:40.844Z,40.91
2018-11-23T12:15:40.834Z,40.18
2018-11-23T12:16:40.827Z,38.57
2018-11-23T12:17:40.883Z,40.10
2018-11-23T12:18:40.802Z,39.31
2018-11-23T12:19:40.792Z,41.35
2018-11-23T12:20:40.789Z,41.56
2018-11-23T12:21:40.777Z,42.58
2018-11-23T12:22:41.163Z,42.60
2018-11-23T12:23:40.751Z,42.47
2018-11-23T12:24:40.744Z,40.44
2018-11-23T12:25:40.732Z,39.94
2018-11-23T12:26:40.719Z,40.44
2018-11-23T12:27:40.770Z,40.88
2018-11-23T12:28:40.697Z,42.92
2018-11-23T12:29:40.691Z,43.24
2018-11-23T12:30:40.676Z,42.61
2018-11-23T12:31:40.669Z,42.70
2018-11-23T12:32:40.716Z,41.99
2018-11-23T12:33:40.646Z,43.32
2018-11-23T12:34:40.637Z,42.46
2018-11-23T12:35:40.637Z,43.55
2018-11-23T12:36:40.616Z,43.32
2018-11-23T12:37:40.663Z,43.23
2018-11-23T12:38:43.067Z,42.54
2018-11-23T12:39:40.581Z,43.67
2018-11-23T12:40:40.574Z,43.06
2018-11-23T12:41:40.558Z,43.59
2018-11-23T12:42:40.614Z,44.58
2018-11-23T12:43:41.095Z,43.34
2018-11-23T12:44:40.527Z,43.04
2018-11-23T12:45:40.519Z,43.37
2018-11-23T12:46:40.506Z,43.26
2018-11-23T12:47:40.562Z,44.46
2018-11-23T12:48:40.487Z,42.84
2018-11-23T12:49:40.476Z,42.84
2018-11-23T12:50:40.471Z,42.43
2018-11-23T12:51:40.453Z,42.84
2018-11-23T12:52:40.516Z,43.34
2018-11-23T12:53:40.432Z,42.54